FOO weather

Kornasoren Airfield
Kornasoren-Numfoor Island, Papua, Indonesia

Public forecast

Using degrees Celsius for public forecast. Weather courtesy of forecast.io.

Closest aviation weather report (METAR) to Kornasoren Airfield

Closest report is Frans Kaisiepo Airport, 75.7 nm (140.3 km) ESE. Retrieved 2020/02/19 13:00 UTC (8 minutes ago):

WABB 191300Z 00000KT 9999 SCT018 BKN100 26/25 Q1011 NOSIG

Closest aviation forecast (TAF) to Kornasoren Airfield

Closest forecast is Rendani Airport, 49.5 nm (91.6 km) W. Retrieved UTC (0 seconds ago):